createdAt,value
2022-09-09T00:01:59.217Z,14.20
2022-09-09T00:04:39.297Z,14.30
2022-09-09T00:07:27.321Z,14.30
2022-09-09T00:10:14.331Z,14.40
2022-09-09T00:13:17.094Z,14.50
2022-09-09T00:16:08.410Z,14.60
2022-09-09T00:18:43.201Z,14.50
2022-09-09T00:21:18.586Z,14.40
2022-09-09T00:23:55.721Z,14.50
2022-09-09T00:26:45.638Z,14.50
2022-09-09T00:29:33.922Z,14.40
2022-09-09T00:32:12.078Z,14.40
2022-09-09T00:34:45.752Z,14.40
2022-09-09T00:37:12.445Z,14.50
2022-09-09T00:39:43.629Z,14.60
2022-09-09T00:42:33.822Z,14.70
2022-09-09T00:45:36.719Z,14.70
2022-09-09T00:48:14.294Z,14.70
2022-09-09T00:50:57.534Z,14.60
2022-09-09T00:53:30.853Z,14.40
2022-09-09T00:56:12.552Z,14.30
2022-09-09T00:58:39.449Z,14.30
2022-09-09T01:01:12.012Z,14.30
2022-09-09T01:03:55.734Z,14.40
2022-09-09T01:06:33.303Z,14.40
2022-09-09T01:09:13.095Z,14.40
2022-09-09T01:12:12.619Z,14.50
2022-09-09T01:14:45.242Z,14.50
2022-09-09T01:17:28.866Z,14.60
2022-09-09T01:20:13.912Z,14.70
2022-09-09T01:23:22.158Z,14.70
2022-09-09T01:26:10.918Z,14.70
2022-09-09T01:28:39.810Z,14.70
2022-09-09T01:31:10.009Z,14.80
2022-09-09T01:33:36.736Z,14.80
2022-09-09T01:36:21.636Z,14.70
2022-09-09T01:38:48.494Z,14.80
2022-09-09T01:41:15.049Z,14.80
2022-09-09T01:43:41.702Z,14.80
2022-09-09T01:46:09.104Z,14.70
2022-09-09T01:48:36.011Z,14.80
2022-09-09T01:51:02.629Z,14.80
2022-09-09T01:53:29.281Z,14.80
2022-09-09T01:56:11.286Z,14.80
2022-09-09T01:59:04.705Z,14.80
2022-09-09T02:02:07.566Z,14.80
2022-09-09T02:04:44.824Z,14.80
2022-09-09T02:08:03.569Z,14.80
2022-09-09T02:10:35.841Z,14.90
2022-09-09T02:13:14.319Z,15.00
2022-09-09T02:15:52.936Z,15.10
2022-09-09T02:18:28.074Z,15.10
2022-09-09T02:20:54.886Z,15.20
2022-09-09T02:23:22.125Z,15.20
2022-09-09T02:25:52.525Z,15.10
2022-09-09T02:28:22.206Z,15.20
2022-09-09T02:30:55.917Z,15.20
2022-09-09T02:33:45.130Z,15.20
2022-09-09T02:36:14.065Z,15.20
2022-09-09T02:38:46.991Z,15.20
2022-09-09T02:41:13.514Z,15.20
2022-09-09T02:43:40.161Z,15.20
2022-09-09T02:46:25.962Z,15.20
2022-09-09T02:49:02.478Z,15.20
2022-09-09T02:51:37.950Z,15.20
2022-09-09T02:54:22.898Z,15.20
2022-09-09T02:56:56.774Z,15.20
2022-09-09T02:59:25.824Z,15.40
2022-09-09T03:01:52.457Z,15.50
2022-09-09T03:04:19.031Z,15.50
2022-09-09T03:06:45.577Z,15.60
2022-09-09T03:09:12.109Z,15.70
2022-09-09T03:11:39.379Z,15.80
2022-09-09T03:14:06.092Z,15.80
2022-09-09T03:16:34.315Z,15.70
2022-09-09T03:19:01.866Z,15.70
2022-09-09T03:21:28.475Z,15.70
2022-09-09T03:23:55.135Z,15.70
2022-09-09T03:26:21.681Z,15.70
2022-09-09T03:28:48.382Z,15.70
2022-09-09T03:31:15.443Z,15.70
2022-09-09T03:33:42.260Z,15.70
2022-09-09T03:36:11.633Z,15.70
2022-09-09T03:38:38.261Z,15.80
2022-09-09T03:41:07.254Z,15.80
2022-09-09T03:43:34.093Z,15.80
2022-09-09T03:46:01.142Z,15.70
2022-09-09T03:48:28.988Z,15.80
2022-09-09T03:50:58.714Z,15.70
2022-09-09T03:53:25.936Z,15.70
2022-09-09T03:55:55.563Z,15.70
2022-09-09T03:58:25.017Z,15.80
2022-09-09T04:00:59.564Z,15.90
2022-09-09T04:03:28.239Z,15.80
2022-09-09T04:05:57.175Z,15.80
2022-09-09T04:08:26.244Z,15.80
2022-09-09T04:10:54.209Z,15.90
2022-09-09T04:13:20.914Z,15.90
2022-09-09T04:15:56.243Z,15.80
2022-09-09T04:18:23.823Z,15.90
2022-09-09T04:20:51.483Z,15.90
2022-09-09T04:23:21.851Z,16.00
2022-09-09T04:25:50.293Z,16.00
2022-09-09T04:28:18.714Z,16.00
2022-09-09T04:30:45.774Z,16.10
2022-09-09T04:33:13.581Z,16.10
2022-09-09T04:35:44.481Z,16.00
2022-09-09T04:38:11.010Z,16.00
2022-09-09T04:40:37.681Z,16.00
2022-09-09T04:43:09.628Z,16.00
2022-09-09T04:45:38.280Z,16.10
2022-09-09T04:48:04.911Z,16.10
2022-09-09T04:50:31.435Z,16.10
2022-09-09T04:53:01.719Z,16.10
2022-09-09T04:55:28.342Z,16.00
2022-09-09T04:57:55.333Z,15.90
2022-09-09T05:00:21.998Z,16.00
2022-09-09T05:02:48.862Z,16.00
2022-09-09T05:05:15.529Z,16.00
2022-09-09T05:07:42.581Z,16.10
2022-09-09T05:10:09.531Z,16.10
2022-09-09T05:12:36.207Z,16.10
2022-09-09T05:15:02.887Z,16.00
2022-09-09T05:17:29.815Z,16.00
2022-09-09T05:19:56.370Z,16.10
2022-09-09T05:22:24.021Z,16.20
2022-09-09T05:24:54.330Z,16.10
2022-09-09T05:27:20.890Z,16.10
2022-09-09T05:29:47.489Z,16.20
2022-09-09T05:32:15.980Z,16.20
2022-09-09T05:34:42.554Z,16.20
2022-09-09T05:37:09.097Z,16.20
2022-09-09T05:39:37.828Z,16.20
2022-09-09T05:42:05.360Z,16.20
2022-09-09T05:44:33.258Z,16.10
2022-09-09T05:46:59.935Z,16.20
2022-09-09T05:49:26.557Z,16.30
2022-09-09T05:51:53.786Z,16.10
2022-09-09T05:54:20.322Z,16.20
2022-09-09T05:56:51.450Z,16.20
2022-09-09T05:59:19.246Z,16.20
2022-09-09T06:01:46.471Z,16.30
2022-09-09T06:04:13.347Z,16.20
2022-09-09T06:06:40.871Z,16.30
2022-09-09T06:09:10.896Z,16.40
2022-09-09T06:11:40.310Z,16.40
2022-09-09T06:14:07.764Z,16.50
2022-09-09T06:16:34.920Z,16.50
2022-09-09T06:19:04.173Z,16.60
2022-09-09T06:21:33.676Z,16.50
2022-09-09T06:24:01.383Z,16.40
2022-09-09T06:26:36.522Z,16.50
2022-09-09T06:29:04.892Z,16.40
2022-09-09T06:31:35.164Z,16.30
2022-09-09T06:34:02.439Z,16.20
2022-09-09T06:36:34.077Z,16.20
2022-09-09T06:39:01.489Z,16.20
2022-09-09T06:41:30.564Z,16.30
2022-09-09T06:43:57.188Z,16.50
2022-09-09T06:46:28.775Z,16.70
2022-09-09T06:48:57.003Z,16.90
2022-09-09T06:51:25.081Z,17.00
2022-09-09T06:53:54.489Z,17.00
2022-09-09T06:56:33.354Z,17.00
2022-09-09T06:59:04.938Z,17.00
2022-09-09T07:01:34.311Z,17.20
2022-09-09T07:04:01.738Z,17.50
2022-09-09T07:06:33.258Z,17.70
2022-09-09T07:09:01.878Z,17.70
2022-09-09T07:11:32.125Z,17.70
2022-09-09T07:14:00.406Z,17.70
2022-09-09T07:16:28.499Z,17.90
2022-09-09T07:19:02.690Z,17.90
2022-09-09T07:21:31.063Z,17.90
2022-09-09T07:23:58.065Z,18.20
2022-09-09T07:26:26.994Z,18.40
2022-09-09T07:28:54.521Z,18.30
2022-09-09T07:31:24.895Z,18.20
2022-09-09T07:33:51.816Z,18.20
2022-09-09T07:36:22.819Z,18.80
2022-09-09T07:38:55.404Z,19.20
2022-09-09T07:41:43.146Z,19.50
2022-09-09T07:44:14.390Z,20.00
2022-09-09T07:46:42.231Z,20.10
2022-09-09T07:49:09.772Z,20.30
2022-09-09T07:51:39.724Z,20.30
2022-09-09T07:54:10.257Z,20.50
2022-09-09T07:56:37.978Z,20.70
2022-09-09T07:59:07.102Z,20.30
2022-09-09T08:01:40.384Z,20.40
2022-09-09T08:04:10.034Z,20.00
2022-09-09T08:06:43.465Z,20.00
2022-09-09T08:09:10.466Z,20.40
2022-09-09T08:11:39.299Z,19.90
2022-09-09T08:14:10.495Z,19.80
2022-09-09T08:16:41.228Z,20.10
2022-09-09T08:19:08.544Z,19.80
2022-09-09T08:21:39.150Z,19.50
2022-09-09T08:24:06.059Z,19.60
2022-09-09T08:26:38.506Z,19.80
2022-09-09T08:29:07.576Z,19.80
2022-09-09T08:31:40.079Z,20.00
2022-09-09T08:34:08.191Z,19.90
2022-09-09T08:36:37.632Z,19.60
2022-09-09T08:39:06.208Z,19.10
2022-09-09T08:42:03.591Z,19.30
2022-09-09T08:44:38.032Z,19.20
2022-09-09T08:47:07.335Z,18.80
2022-09-09T08:50:02.754Z,18.70
2022-09-09T08:52:38.538Z,19.40
2022-09-09T08:55:31.991Z,19.70
2022-09-09T08:58:10.727Z,19.80
2022-09-09T09:01:07.764Z,20.50
2022-09-09T09:04:02.189Z,21.10
2022-09-09T09:06:31.827Z,20.80
2022-09-09T09:09:03.745Z,20.60
2022-09-09T09:12:04.587Z,20.30
2022-09-09T09:14:35.029Z,20.60
2022-09-09T09:17:14.088Z,20.10
2022-09-09T09:19:44.077Z,20.20
2022-09-09T09:22:39.833Z,20.20
2022-09-09T09:25:20.341Z,19.90
2022-09-09T09:28:00.851Z,19.90
2022-09-09T09:30:35.186Z,19.80
2022-09-09T09:33:34.410Z,19.80
2022-09-09T09:36:00.984Z,19.70
2022-09-09T09:41:15.861Z,19.80
2022-09-09T09:43:45.252Z,20.00
2022-09-09T09:46:28.288Z,20.20
2022-09-09T09:49:06.718Z,20.20
2022-09-09T09:51:34.697Z,20.10
2022-09-09T09:54:26.133Z,20.00
2022-09-09T09:56:52.782Z,19.90
2022-09-09T09:59:50.063Z,19.80
2022-09-09T10:02:27.601Z,19.40
2022-09-09T10:05:26.304Z,19.30
2022-09-09T10:08:10.371Z,19.50
2022-09-09T10:10:56.254Z,19.60
2022-09-09T10:13:47.898Z,19.70
2022-09-09T10:16:29.645Z,19.50
2022-09-09T10:19:07.423Z,19.70
2022-09-09T10:21:53.079Z,19.70
2022-09-09T10:24:29.924Z,19.60
2022-09-09T10:27:09.525Z,19.70
2022-09-09T10:30:02.441Z,19.70
2022-09-09T10:32:57.683Z,19.50
2022-09-09T10:35:44.721Z,19.70
2022-09-09T10:38:14.857Z,20.00
2022-09-09T10:40:54.085Z,20.40
2022-09-09T10:43:20.596Z,20.80
2022-09-09T10:46:12.398Z,20.60
2022-09-09T10:48:56.781Z,20.70
2022-09-09T10:51:44.017Z,20.50
2022-09-09T10:54:24.975Z,21.00
2022-09-09T10:56:58.485Z,20.70
2022-09-09T10:59:35.026Z,20.50
2022-09-09T11:02:11.010Z,20.80
2022-09-09T11:04:51.238Z,21.40
2022-09-09T11:07:28.962Z,21.80
2022-09-09T11:10:01.173Z,22.00
2022-09-09T11:12:29.872Z,21.50
2022-09-09T11:15:05.112Z,21.30
2022-09-09T11:18:07.167Z,21.00
2022-09-09T11:20:34.294Z,21.00
2022-09-09T11:23:13.829Z,20.50
2022-09-09T11:25:46.449Z,20.30
2022-09-09T11:28:54.730Z,19.90
2022-09-09T11:31:57.062Z,19.90
2022-09-09T11:34:52.473Z,19.50
2022-09-09T11:37:56.773Z,19.30
2022-09-09T11:40:26.324Z,18.30
2022-09-09T11:43:10.926Z,18.10
2022-09-09T11:45:37.816Z,17.90
2022-09-09T11:48:07.014Z,17.70
2022-09-09T11:50:38.325Z,17.60
2022-09-09T11:53:14.710Z,17.50
2022-09-09T11:55:41.308Z,17.60
2022-09-09T11:58:11.822Z,17.60
2022-09-09T12:00:47.922Z,17.70
2022-09-09T12:03:40.724Z,17.80
2022-09-09T12:06:21.062Z,17.50
2022-09-09T12:08:53.856Z,17.20
2022-09-09T12:11:31.532Z,16.90
2022-09-09T12:14:01.842Z,16.80
2022-09-09T12:16:31.932Z,16.90
2022-09-09T12:19:24.767Z,16.90
2022-09-09T12:22:08.919Z,16.90
2022-09-09T12:25:12.617Z,17.00
2022-09-09T12:27:48.658Z,17.10
2022-09-09T12:30:16.863Z,17.80
2022-09-09T12:32:45.671Z,18.20
2022-09-09T12:35:27.749Z,18.60
2022-09-09T12:37:59.685Z,19.80
2022-09-09T12:40:33.172Z,19.50
2022-09-09T12:43:02.134Z,19.30
2022-09-09T12:45:33.816Z,19.40
2022-09-09T12:48:02.634Z,19.20
2022-09-09T12:50:32.265Z,19.40
2022-09-09T12:53:11.092Z,19.60
2022-09-09T12:55:40.397Z,20.00
2022-09-09T12:58:07.947Z,19.80
2022-09-09T13:00:35.465Z,19.50
2022-09-09T13:03:16.961Z,19.30
2022-09-09T13:05:43.553Z,19.40
2022-09-09T13:08:13.491Z,20.00
2022-09-09T13:11:04.032Z,21.30
2022-09-09T13:13:39.129Z,22.20
2022-09-09T13:16:19.258Z,21.90
2022-09-09T13:18:46.163Z,22.30
2022-09-09T13:21:13.170Z,22.90
2022-09-09T13:23:40.005Z,23.30
2022-09-09T13:26:22.880Z,23.20
2022-09-09T13:28:50.423Z,22.40
2022-09-09T13:31:28.839Z,22.10
2022-09-09T13:33:55.745Z,21.10
2022-09-09T13:36:33.811Z,20.20
2022-09-09T13:39:02.987Z,19.60
2022-09-09T13:41:45.183Z,18.80
2022-09-09T13:44:25.078Z,18.10
2022-09-09T13:47:18.136Z,17.80
2022-09-09T13:49:44.804Z,17.60
2022-09-09T13:52:14.566Z,17.20
2022-09-09T13:54:42.872Z,16.50
2022-09-09T13:57:21.183Z,15.50
2022-09-09T14:00:04.154Z,15.10
2022-09-09T14:02:32.081Z,15.00
2022-09-09T14:04:58.735Z,15.00
2022-09-09T14:07:26.368Z,15.10
2022-09-09T14:09:53.375Z,15.40
2022-09-09T14:12:20.989Z,15.70
2022-09-09T14:14:47.543Z,16.10
2022-09-09T14:17:15.285Z,16.40
2022-09-09T14:19:41.893Z,16.80
2022-09-09T14:22:08.773Z,17.20
2022-09-09T14:24:35.405Z,17.70
2022-09-09T14:27:02.013Z,18.30
2022-09-09T14:29:28.579Z,18.80
2022-09-09T14:31:55.122Z,19.70
2022-09-09T14:34:21.690Z,21.10
2022-09-09T14:36:48.293Z,21.80
2022-09-09T14:39:14.832Z,21.70
2022-09-09T14:41:41.444Z,21.20
2022-09-09T14:44:09.052Z,21.00
2022-09-09T14:46:35.629Z,21.10
2022-09-09T14:49:02.195Z,20.70
2022-09-09T14:51:29.122Z,20.50
2022-09-09T14:53:58.090Z,20.10
2022-09-09T14:56:27.784Z,20.00
2022-09-09T14:58:56.238Z,19.80
2022-09-09T15:01:23.375Z,19.60
2022-09-09T15:03:55.757Z,19.50
2022-09-09T15:06:24.127Z,19.40
2022-09-09T15:08:53.126Z,19.40
2022-09-09T15:11:21.119Z,19.50
2022-09-09T15:13:50.883Z,19.40
2022-09-09T15:16:19.570Z,19.40
2022-09-09T15:18:51.382Z,20.30
2022-09-09T15:21:20.236Z,20.80
2022-09-09T15:23:48.448Z,20.60
2022-09-09T15:26:16.002Z,20.40
2022-09-09T15:28:44.561Z,20.40
2022-09-09T15:31:11.753Z,20.20
2022-09-09T15:33:38.759Z,20.20
2022-09-09T15:36:22.785Z,19.90
2022-09-09T15:38:50.130Z,19.50
2022-09-09T15:41:18.520Z,19.40
2022-09-09T15:43:46.883Z,18.80
2022-09-09T15:46:38.836Z,17.80
2022-09-09T15:49:12.187Z,17.10
2022-09-09T15:51:43.554Z,16.60
2022-09-09T15:54:13.751Z,16.80
2022-09-09T15:56:41.335Z,16.80
2022-09-09T15:59:08.073Z,17.40
2022-09-09T16:01:36.469Z,18.30
2022-09-09T16:04:03.645Z,18.80
2022-09-09T16:06:30.795Z,19.80
2022-09-09T16:09:00.382Z,20.00
2022-09-09T16:11:29.946Z,20.40
2022-09-09T16:13:56.682Z,21.10
2022-09-09T16:16:26.203Z,20.90
2022-09-09T16:18:58.534Z,20.80
2022-09-09T16:21:30.089Z,20.50
2022-09-09T16:24:00.313Z,20.20
2022-09-09T16:26:28.482Z,19.80
2022-09-09T16:28:59.935Z,19.30
2022-09-09T16:31:28.067Z,19.10
2022-09-09T16:33:55.134Z,18.70
2022-09-09T16:36:27.661Z,18.80
2022-09-09T16:38:58.303Z,18.70
2022-09-09T16:41:26.608Z,18.50
2022-09-09T16:43:55.281Z,18.60
2022-09-09T16:46:23.387Z,18.70
2022-09-09T16:48:50.585Z,19.20
2022-09-09T16:51:24.195Z,19.50
2022-09-09T16:53:51.751Z,19.40
2022-09-09T16:56:25.378Z,19.20
2022-09-09T16:58:57.122Z,19.10
2022-09-09T17:01:24.694Z,18.90
2022-09-09T17:04:01.466Z,18.70
2022-09-09T17:06:30.453Z,18.60
2022-09-09T17:09:02.249Z,18.40
2022-09-09T17:11:30.890Z,18.20
2022-09-09T17:14:01.619Z,18.30
2022-09-09T17:16:30.740Z,18.00
2022-09-09T17:18:59.452Z,18.00
2022-09-09T17:21:27.892Z,18.00
2022-09-09T17:23:55.937Z,18.00
2022-09-09T17:26:25.092Z,17.80
2022-09-09T17:28:58.654Z,17.90
2022-09-09T17:31:26.925Z,17.80
2022-09-09T17:33:54.067Z,17.80
2022-09-09T17:36:25.975Z,17.70
2022-09-09T17:38:53.374Z,17.70
2022-09-09T17:41:22.653Z,17.60
2022-09-09T17:43:50.429Z,17.60
2022-09-09T17:46:23.374Z,17.70
2022-09-09T17:48:57.216Z,17.50
2022-09-09T17:51:28.732Z,17.50
2022-09-09T17:53:59.232Z,17.40
2022-09-09T17:56:29.069Z,17.30
2022-09-09T17:58:55.710Z,17.20
2022-09-09T18:01:27.843Z,17.10
2022-09-09T18:03:57.357Z,17.10
2022-09-09T18:06:27.915Z,17.10
2022-09-09T18:08:57.461Z,17.10
2022-09-09T18:11:26.945Z,17.10
2022-09-09T18:13:55.769Z,17.00
2022-09-09T18:16:23.278Z,17.10
2022-09-09T18:18:52.817Z,16.90
2022-09-09T18:21:20.193Z,16.90
2022-09-09T18:23:50.658Z,16.90
2022-09-09T18:26:22.244Z,16.90
2022-09-09T18:28:51.253Z,16.90
2022-09-09T18:31:20.433Z,16.90
2022-09-09T18:33:50.827Z,16.80
2022-09-09T18:36:23.935Z,16.80
2022-09-09T18:38:51.439Z,16.80
2022-09-09T18:41:23.940Z,16.80
2022-09-09T18:43:52.699Z,16.80
2022-09-09T18:46:23.637Z,16.80
2022-09-09T18:48:50.800Z,16.90
2022-09-09T18:51:21.451Z,16.90
2022-09-09T18:53:51.119Z,16.90
2022-09-09T18:56:18.079Z,17.00
2022-09-09T18:58:44.800Z,16.90
2022-09-09T19:01:13.643Z,16.90
2022-09-09T19:03:41.052Z,16.90
2022-09-09T19:06:09.594Z,16.90
2022-09-09T19:08:37.734Z,16.80
2022-09-09T19:11:06.850Z,16.80
2022-09-09T19:13:34.934Z,16.70
2022-09-09T19:16:15.021Z,16.70
2022-09-09T19:18:44.755Z,16.70
2022-09-09T19:21:31.607Z,16.60
2022-09-09T19:24:14.962Z,16.60
2022-09-09T19:26:48.038Z,16.60
2022-09-09T19:29:17.622Z,16.60
2022-09-09T19:32:01.853Z,16.60
2022-09-09T19:34:32.077Z,16.50
2022-09-09T19:36:58.614Z,16.50
2022-09-09T19:39:25.199Z,16.50
2022-09-09T19:41:51.826Z,16.50
2022-09-09T19:44:18.446Z,16.50
2022-09-09T19:46:48.534Z,16.40
2022-09-09T19:49:15.547Z,16.50
2022-09-09T19:51:43.235Z,16.50
2022-09-09T19:54:12.523Z,16.60
2022-09-09T19:56:40.317Z,16.60
2022-09-09T19:59:08.352Z,16.60
2022-09-09T20:01:40.196Z,16.60
2022-09-09T20:04:07.730Z,16.70
2022-09-09T20:06:40.062Z,16.70
2022-09-09T20:09:08.438Z,16.70
2022-09-09T20:11:35.495Z,16.60
2022-09-09T20:14:02.297Z,16.60
2022-09-09T20:16:30.645Z,16.60
2022-09-09T20:19:00.853Z,16.50
2022-09-09T20:21:31.102Z,16.40
2022-09-09T20:24:00.105Z,16.40
2022-09-09T20:26:30.174Z,16.40
2022-09-09T20:28:56.741Z,16.40
2022-09-09T20:31:27.129Z,16.40
2022-09-09T20:33:54.876Z,16.30
2022-09-09T20:36:27.234Z,16.40
2022-09-09T20:38:57.810Z,16.40
2022-09-09T20:41:30.357Z,16.30
2022-09-09T20:44:02.981Z,16.40
2022-09-09T20:46:36.553Z,16.30
2022-09-09T20:49:04.604Z,16.40
2022-09-09T20:51:33.196Z,16.40
2022-09-09T20:54:05.337Z,16.50
2022-09-09T20:56:38.507Z,16.50
2022-09-09T20:59:06.796Z,16.50
2022-09-09T21:01:33.823Z,16.60
2022-09-09T21:04:00.510Z,16.60
2022-09-09T21:06:27.105Z,16.60
2022-09-09T21:08:53.657Z,16.70
2022-09-09T21:11:20.531Z,16.70
2022-09-09T21:13:47.171Z,16.70
2022-09-09T21:16:19.270Z,16.80
2022-09-09T21:18:45.997Z,16.80
2022-09-09T21:21:13.395Z,16.70
2022-09-09T21:23:39.973Z,16.70
2022-09-09T21:26:07.579Z,16.70
2022-09-09T21:28:35.942Z,16.60
2022-09-09T21:31:03.809Z,16.60
2022-09-09T21:33:30.608Z,16.50
2022-09-09T21:36:03.315Z,16.40
2022-09-09T21:38:30.294Z,16.20
2022-09-09T21:40:56.819Z,16.10
2022-09-09T21:43:23.609Z,15.90
2022-09-09T21:45:50.875Z,15.90
2022-09-09T21:48:19.009Z,15.80
2022-09-09T21:50:47.716Z,15.90
2022-09-09T21:53:18.013Z,15.80
2022-09-09T21:55:47.216Z,15.90
2022-09-09T21:58:15.050Z,15.80
2022-09-09T22:00:46.906Z,15.70
2022-09-09T22:03:15.167Z,15.70
2022-09-09T22:05:43.894Z,15.70
2022-09-09T22:08:12.329Z,15.70
2022-09-09T22:10:41.466Z,15.70
2022-09-09T22:13:08.421Z,15.60
2022-09-09T22:15:36.523Z,15.60
2022-09-09T22:18:04.296Z,15.50
2022-09-09T22:20:39.546Z,15.50
2022-09-09T22:23:06.123Z,15.50
2022-09-09T22:25:37.305Z,15.40
2022-09-09T22:28:06.488Z,15.30
2022-09-09T22:30:34.072Z,15.30
2022-09-09T22:33:01.208Z,15.20
2022-09-09T22:35:28.927Z,15.20
2022-09-09T22:37:55.842Z,15.30
2022-09-09T22:40:22.682Z,15.20
2022-09-09T22:42:52.674Z,15.20
2022-09-09T22:45:21.549Z,15.20
2022-09-09T22:47:48.146Z,15.10
2022-09-09T22:50:14.848Z,15.00
2022-09-09T22:52:41.706Z,15.00
2022-09-09T22:55:09.200Z,14.90
2022-09-09T22:57:36.322Z,14.90
2022-09-09T23:00:08.181Z,15.00
2022-09-09T23:02:38.718Z,14.90
2022-09-09T23:05:08.586Z,15.20
2022-09-09T23:07:36.768Z,15.10
2022-09-09T23:10:05.498Z,15.10
2022-09-09T23:12:32.681Z,15.10
2022-09-09T23:14:59.456Z,15.20
2022-09-09T23:17:26.363Z,15.20
2022-09-09T23:19:54.200Z,15.20
2022-09-09T23:22:24.096Z,15.30
2022-09-09T23:24:52.654Z,15.30
2022-09-09T23:27:21.220Z,15.30
2022-09-09T23:29:48.648Z,15.30
2022-09-09T23:32:15.722Z,15.30
2022-09-09T23:34:42.307Z,15.40
2022-09-09T23:37:11.013Z,15.30
2022-09-09T23:39:40.172Z,15.40
2022-09-09T23:42:08.146Z,15.30
2022-09-09T23:44:35.689Z,15.40
2022-09-09T23:47:02.710Z,15.50
2022-09-09T23:49:29.278Z,15.50
2022-09-09T23:51:55.825Z,15.50
2022-09-09T23:54:22.356Z,15.60
2022-09-09T23:56:48.895Z,15.60
2022-09-09T23:59:15.891Z,15.60
